Time;durP1;ratioP1;P1;durP2;ratioP2;P2;SDS_P1;SDS_P2;PMS_P1;PMS_P2;Temp;Humidity;BMP_temperature;BMP_pressure;BME280_temperature;BME280_humidity;BME280_pressure;Samples;Min_cycle;Max_cycle;Signal;HPM_P1;HPM_P2
2021/10/13 00:02:23;;;;;;;9.05;6.00;;;;;;;2.54;100.00;99471.41;5100873;28;20089;-82
2021/10/13 00:05:08;;;;;;;11.07;7.82;;;;;;;2.62;100.00;99463.63;5115297;28;20035;-82
2021/10/13 00:07:53;;;;;;;13.43;7.57;;;;;;;2.57;100.00;99466.22;5115219;28;20036;-82
2021/10/13 00:10:37;;;;;;;10.85;7.78;;;;;;;2.65;100.00;99469.69;5115280;28;20050;-85
2021/10/13 00:13:21;;;;;;;15.80;9.48;;;;;;;2.63;100.00;99467.94;5100901;28;20044;-81
2021/10/13 00:16:06;;;;;;;14.70;9.48;;;;;;;2.66;100.00;99466.22;5115254;28;20096;-83
2021/10/13 00:18:51;;;;;;;12.85;8.75;;;;;;;2.67;100.00;99475.72;5115902;28;20121;-83
2021/10/13 00:21:35;;;;;;;15.18;10.30;;;;;;;2.73;100.00;99470.56;5115827;28;20035;-83
2021/10/13 00:24:20;;;;;;;16.95;10.10;;;;;;;2.81;100.00;99470.56;5115146;28;20429;-83
2021/10/13 00:27:04;;;;;;;14.50;9.40;;;;;;;2.81;100.00;99473.16;5100905;28;20054;-80
2021/10/13 00:29:49;;;;;;;14.68;9.30;;;;;;;2.82;100.00;99472.28;5115783;28;20054;-81
2021/10/13 00:32:33;;;;;;;14.52;8.82;;;;;;;2.88;100.00;99472.28;5115641;28;20036;-83
2021/10/13 00:35:17;;;;;;;16.17;9.50;;;;;;;2.93;100.00;99470.56;5115827;28;20097;-83
2021/10/13 00:38:02;;;;;;;14.35;10.00;;;;;;;2.93;100.00;99480.06;5115085;28;20392;-84
2021/10/13 00:40:46;;;;;;;14.65;9.55;;;;;;;3.02;100.00;99475.75;5115598;28;20052;-84
2021/10/13 00:43:31;;;;;;;15.90;10.73;;;;;;;3.00;100.00;99479.19;5117709;28;20051;-84
2021/10/13 00:46:15;;;;;;;12.70;9.27;;;;;;;3.10;100.00;99482.66;5104271;28;20086;-84
2021/10/13 00:49:01;;;;;;;12.35;9.20;;;;;;;3.15;100.00;99481.78;5104178;28;20040;-83
2021/10/13 00:51:45;;;;;;;16.67;9.23;;;;;;;3.18;100.00;99492.13;5119095;28;20048;-84
2021/10/13 00:54:30;;;;;;;12.15;8.85;;;;;;;3.18;100.00;99488.66;5118060;28;20388;-84
2021/10/13 00:57:14;;;;;;;13.05;9.07;;;;;;;3.30;100.00;99491.25;5119127;28;20391;-84
2021/10/13 00:59:59;;;;;;;14.13;10.18;;;;;;;3.25;100.00;99496.47;5118947;28;20063;-84
2021/10/13 01:03:09;;;;;;;14.80;10.20;;;;;;;3.21;100.00;99493.84;5118252;28;20059;-83
2021/10/13 01:06:22;;;;;;;14.65;10.55;;;;;;;3.29;100.00;99492.13;5105581;28;20055;-84
2021/10/13 01:09:30;;;;;;;15.55;10.82;;;;;;;3.32;100.00;99488.69;5119039;28;20044;-84
2021/10/13 01:12:24;;;;;;;15.15;10.82;;;;;;;3.30;100.00;99488.69;5118071;28;20047;-83
2021/10/13 01:15:40;;;;;;;16.00;11.00;;;;;;;3.32;100.00;99486.97;5118770;28;20105;-84
2021/10/13 01:18:34;;;;;;;17.80;11.90;;;;;;;3.27;100.00;99496.44;5102695;28;20113;-84
2021/10/13 01:21:47;;;;;;;17.08;11.02;;;;;;;3.33;100.00;99504.22;5118622;28;20452;-84
2021/10/13 01:24:51;;;;;;;17.02;11.57;;;;;;;3.26;100.00;99495.59;5118464;28;20047;-85
2021/10/13 01:27:53;;;;;;;17.70;11.02;;;;;;;3.28;100.00;99491.28;5103161;28;20084;-84
2021/10/13 01:30:44;;;;;;;14.70;11.15;;;;;;;3.24;100.00;99492.13;5118362;28;20361;-84
2021/10/13 01:33:36;;;;;;;16.73;11.95;;;;;;;3.17;100.00;99500.75;5118376;28;20105;-85
2021/10/13 01:36:27;;;;;;;15.03;11.17;;;;;;;3.21;100.00;99497.28;5118420;28;20035;-85
2021/10/13 01:39:12;;;;;;;18.50;11.77;;;;;;;3.14;100.00;99495.56;5117544;28;20040;-84
2021/10/13 01:42:00;;;;;;;15.80;10.90;;;;;;;3.14;100.00;99505.94;5117600;28;20417;-83
2021/10/13 01:44:56;;;;;;;16.58;12.30;;;;;;;3.15;100.00;99502.50;5118091;28;20063;-84
2021/10/13 01:47:45;;;;;;;17.25;11.88;;;;;;;3.08;100.00;99494.72;5118015;28;20036;-84
2021/10/13 01:50:30;;;;;;;16.75;11.52;;;;;;;3.15;100.00;99499.03;5102909;28;20040;-84
2021/10/13 01:53:17;;;;;;;16.15;11.23;;;;;;;3.19;100.00;99505.94;5102895;28;20039;-84
2021/10/13 01:56:03;;;;;;;15.05;10.60;;;;;;;3.13;100.00;99505.94;5117911;28;20387;-85
2021/10/13 01:58:51;;;;;;;16.38;11.85;;;;;;;3.16;100.00;99513.72;5117841;28;20040;-84
2021/10/13 02:01:38;;;;;;;15.60;10.82;;;;;;;3.19;100.00;99506.81;5117175;28;20426;-84
2021/10/13 02:04:24;;;;;;;12.85;9.52;;;;;;;3.19;100.00;99495.59;5117750;28;20096;-83
2021/10/13 02:07:11;;;;;;;14.80;9.88;;;;;;;3.20;100.00;99512.84;5117036;28;20437;-84
2021/10/13 02:10:06;;;;;;;13.43;9.55;;;;;;;3.20;100.00;99510.25;5117722;28;20036;-84
2021/10/13 02:12:53;;;;;;;14.55;9.85;;;;;;;3.18;100.00;99520.59;5117727;28;20044;-83
2021/10/13 02:15:39;;;;;;;15.23;9.70;;;;;;;3.10;100.00;99511.97;5117497;28;20043;-84
2021/10/13 02:18:27;;;;;;;11.82;8.43;;;;;;;3.12;100.00;99519.72;5117379;28;20089;-84
2021/10/13 02:21:15;;;;;;;15.85;9.82;;;;;;;3.15;100.00;99520.63;5117563;28;20032;-84
2021/10/13 02:24:00;;;;;;;13.48;9.60;;;;;;;3.14;100.00;99538.72;5117587;28;20048;-85
2021/10/13 02:26:46;;;;;;;11.73;9.27;;;;;;;2.99;100.00;99535.28;5102248;28;20043;-84
2021/10/13 02:29:31;;;;;;;12.43;9.27;;;;;;;3.06;100.00;99538.72;5117145;28;20075;-84
2021/10/13 02:32:16;;;;;;;15.02;9.35;;;;;;;3.02;100.00;99543.03;5117329;28;20089;-85
2021/10/13 02:35:00;;;;;;;10.60;7.78;;;;;;;3.12;100.00;99546.50;5102315;28;20039;-85
2021/10/13 02:37:45;;;;;;;14.43;9.25;;;;;;;3.09;100.00;99541.31;5116453;28;20103;-84
2021/10/13 02:40:29;;;;;;;14.52;10.15;;;;;;;3.12;100.00;99543.03;5116217;28;20067;-84
2021/10/13 02:43:14;;;;;;;12.60;9.00;;;;;;;3.13;100.00;99557.72;5116268;28;20044;-84
2021/10/13 02:46:06;;;;;;;11.13;7.85;;;;;;;3.19;100.00;99558.56;5117097;28;20460;-83
2021/10/13 02:49:01;;;;;;;14.13;8.45;;;;;;;3.24;100.00;99558.56;5116353;28;20444;-83
2021/10/13 02:51:51;;;;;;;12.68;7.88;;;;;;;3.27;100.00;99561.16;5101819;28;20433;-83
2021/10/13 02:54:53;;;;;;;10.90;8.45;;;;;;;3.15;100.00;99556.84;5116786;28;20046;-84
2021/10/13 02:57:46;;;;;;;12.90;9.65;;;;;;;3.16;100.00;99561.16;5101675;28;20118;-85
2021/10/13 03:00:33;;;;;;;13.40;9.50;;;;;;;3.23;100.00;99562.88;5115940;28;20043;-84
2021/10/13 03:03:28;;;;;;;15.18;10.20;;;;;;;3.24;100.00;99562.00;5116017;28;20036;-83
2021/10/13 03:06:13;;;;;;;12.07;9.30;;;;;;;3.27;100.00;99561.16;5116217;28;20073;-84
2021/10/13 03:08:59;;;;;;;15.80;11.85;;;;;;;3.24;100.00;99569.78;5116815;28;20044;-85
2021/10/13 03:11:44;;;;;;;16.55;11.63;;;;;;;3.21;100.00;99568.91;5115780;28;20073;-84
2021/10/13 03:14:32;;;;;;;31.85;19.73;;;;;;;3.19;100.00;99581.88;5116500;28;20047;-84
2021/10/13 03:17:18;;;;;;;35.53;20.60;;;;;;;3.24;100.00;99595.66;5115883;28;20036;-84
2021/10/13 03:20:04;;;;;;;20.25;14.00;;;;;;;3.19;100.00;99594.81;5115900;28;20427;-85
2021/10/13 03:22:52;;;;;;;28.30;17.48;;;;;;;3.25;100.00;99594.81;5116747;28;20043;-83
2021/10/13 03:25:36;;;;;;;65.60;38.35;;;;;;;3.24;100.00;99589.63;5115772;28;20035;-84
2021/10/13 03:28:21;;;;;;;26.73;16.73;;;;;;;3.36;100.00;99596.56;5116345;28;20052;-84
2021/10/13 03:31:06;;;;;;;20.95;13.68;;;;;;;3.38;100.00;99594.81;5116407;28;20058;-84
2021/10/13 03:33:53;;;;;;;29.05;19.90;;;;;;;3.37;100.00;99603.44;5115627;28;20039;-84
2021/10/13 03:36:42;;;;;;;24.90;16.48;;;;;;;3.48;100.00;99612.97;5115521;28;20047;-83
2021/10/13 03:39:26;;;;;;;22.58;14.90;;;;;;;3.41;100.00;99611.25;5116132;28;20092;-84
2021/10/13 03:42:11;;;;;;;18.50;12.32;;;;;;;3.51;100.00;99615.56;5115570;28;20353;-85
2021/10/13 03:44:55;;;;;;;21.30;14.02;;;;;;;3.46;100.00;99608.63;5115760;28;20036;-84
2021/10/13 03:47:40;;;;;;;26.13;16.48;;;;;;;3.50;100.00;99600.84;5101085;28;20050;-85
2021/10/13 03:50:25;;;;;;;31.05;19.60;;;;;;;3.54;100.00;99616.41;5116187;28;20051;-84
2021/10/13 03:53:09;;;;;;;140.13;55.33;;;;;;;3.50;100.00;99607.78;5116316;28;20051;-85
2021/10/13 03:55:53;;;;;;;54.10;24.15;;;;;;;3.49;100.00;99606.06;5115561;28;20057;-83
2021/10/13 03:58:38;;;;;;;88.00;39.10;;;;;;;3.54;100.00;99619.84;5116027;28;20338;-84
2021/10/13 04:01:22;;;;;;;68.43;31.35;;;;;;;3.54;100.00;99622.44;5115408;28;20039;-84
2021/10/13 04:04:07;;;;;;;174.98;76.57;;;;;;;3.60;100.00;99622.44;5115450;28;20046;-83
2021/10/13 04:06:51;;;;;;;105.25;57.13;;;;;;;3.49;100.00;99629.34;5116126;28;20039;-84
2021/10/13 04:09:35;;;;;;;41.20;27.50;;;;;;;3.55;100.00;99626.78;5100983;28;20110;-84
2021/10/13 04:12:20;;;;;;;22.40;15.05;;;;;;;3.62;100.00;99625.06;5115371;28;20043;-84
2021/10/13 04:15:07;;;;;;;22.50;13.35;;;;;;;3.61;100.00;99631.97;5115376;28;20101;-82
2021/10/13 04:17:51;;;;;;;18.45;12.13;;;;;;;3.53;100.00;99625.03;5117890;28;20039;-85
2021/10/13 04:20:36;;;;;;;21.20;13.52;;;;;;;3.59;100.00;99628.50;5119721;28;20071;-84
2021/10/13 04:23:20;;;;;;;21.50;15.10;;;;;;;3.63;100.00;99630.22;5119882;28;20043;-84
2021/10/13 04:26:04;;;;;;;16.92;11.82;;;;;;;3.61;100.00;99636.28;5119808;28;20044;-84
2021/10/13 04:28:49;;;;;;;15.85;10.70;;;;;;;3.66;100.00;99629.34;5119371;28;20055;-84
2021/10/13 04:31:33;;;;;;;30.65;14.48;;;;;;;3.63;100.00;99637.97;5118848;28;20055;-85
2021/10/13 04:34:18;;;;;;;19.52;11.65;;;;;;;3.58;100.00;99631.97;5118875;28;20065;-83
2021/10/13 04:37:03;;;;;;;17.40;10.52;;;;;;;3.60;100.00;99642.31;5118824;28;20044;-85
2021/10/13 04:39:48;;;;;;;13.63;9.90;;;;;;;3.58;100.00;99647.50;5118647;28;20044;-84
2021/10/13 04:42:32;;;;;;;13.63;8.93;;;;;;;3.68;100.00;99648.38;5119326;28;20405;-83
2021/10/13 04:45:17;;;;;;;13.15;9.05;;;;;;;3.68;100.00;99646.63;5118671;28;20046;-83
2021/10/13 04:48:01;;;;;;;14.70;9.75;;;;;;;3.65;100.00;99640.59;5118757;28;20067;-83
2021/10/13 04:50:46;;;;;;;14.05;8.88;;;;;;;3.63;100.00;99655.25;5119235;28;20039;-82
2021/10/13 04:53:31;;;;;;;12.20;8.10;;;;;;;3.67;100.00;99657.88;5119106;28;20047;-83
2021/10/13 04:56:16;;;;;;;13.07;8.13;;;;;;;3.54;100.00;99656.09;5118497;28;20104;-83
2021/10/13 04:59:00;;;;;;;12.48;8.50;;;;;;;3.58;100.00;99657.00;5119013;28;20051;-84
2021/10/13 05:01:45;;;;;;;12.25;7.82;;;;;;;3.59;100.00;99659.56;5118355;28;20040;-84
2021/10/13 05:04:29;;;;;;;13.05;8.10;;;;;;;3.57;100.00;99665.59;5118831;28;20097;-84
2021/10/13 05:07:15;;;;;;;11.27;8.02;;;;;;;3.59;100.00;99669.94;5116533;28;20387;-84
2021/10/13 05:10:00;;;;;;;13.85;8.82;;;;;;;3.50;100.00;99667.34;5116148;28;20047;-83
2021/10/13 05:12:44;;;;;;;11.48;7.53;;;;;;;3.58;100.00;99677.72;5116811;28;20528;-84
2021/10/13 05:15:28;;;;;;;13.68;9.10;;;;;;;3.54;100.00;99671.66;5116791;28;20130;-83
2021/10/13 05:18:13;;;;;;;12.20;7.90;;;;;;;3.36;100.00;99674.22;5115991;28;20039;-82
2021/10/13 05:20:57;;;;;;;9.55;7.38;;;;;;;3.47;100.00;99678.53;5116682;28;20122;-83
2021/10/13 05:23:41;;;;;;;11.30;8.13;;;;;;;3.50;100.00;99680.28;5116325;28;20093;-83
2021/10/13 05:26:28;;;;;;;16.20;8.88;;;;;;;3.51;100.00;99685.47;5116672;28;20040;-83
2021/10/13 05:29:12;;;;;;;16.02;12.10;;;;;;;3.46;100.00;99694.94;5115170;28;20067;-84
2021/10/13 05:31:56;;;;;;;15.70;9.90;;;;;;;3.52;100.00;99701.88;5116681;28;20044;-83
2021/10/13 05:34:41;;;;;;;9.75;7.65;;;;;;;3.54;100.00;99701.88;5116820;28;20039;-85
2021/10/13 05:37:26;;;;;;;14.25;8.07;;;;;;;3.54;100.00;99702.72;5115810;28;20345;-82
2021/10/13 05:40:11;;;;;;;12.82;9.20;;;;;;;3.63;100.00;99707.91;5118620;28;20039;-84
2021/10/13 05:42:55;;;;;;;11.32;8.57;;;;;;;3.46;100.00;99715.66;5118668;28;20046;-83
2021/10/13 05:45:40;;;;;;;13.88;8.77;;;;;;;3.42;100.00;99718.25;5118889;28;20039;-84
2021/10/13 05:48:24;;;;;;;12.50;8.07;;;;;;;3.50;100.00;99732.06;5118838;28;20410;-84
2021/10/13 05:51:08;;;;;;;12.13;8.55;;;;;;;3.52;100.00;99730.38;5118197;28;20039;-85
2021/10/13 05:53:52;;;;;;;13.05;10.73;;;;;;;3.54;100.00;99735.53;5118445;28;20035;-83
2021/10/13 05:56:37;;;;;;;12.38;8.32;;;;;;;3.56;100.00;99751.94;5103597;28;20406;-85
2021/10/13 05:59:21;;;;;;;10.85;8.55;;;;;;;3.63;100.00;99751.97;5118444;28;20397;-84
2021/10/13 06:02:06;;;;;;;13.90;10.38;;;;;;;3.66;100.00;99748.50;5118032;28;20349;-82
2021/10/13 06:04:51;;;;;;;16.75;12.35;;;;;;;3.70;100.00;99751.09;5118320;28;20040;-84
2021/10/13 06:07:35;;;;;;;16.83;11.18;;;;;;;3.85;100.00;99767.56;5117722;28;20319;-84
2021/10/13 06:10:20;;;;;;;16.13;11.20;;;;;;;3.87;100.00;99761.50;5117848;28;20119;-84
2021/10/13 06:13:04;;;;;;;23.42;15.40;;;;;;;3.80;100.00;99764.06;5117870;28;20040;-84
2021/10/13 06:15:51;;;;;;;14.95;11.23;;;;;;;3.95;100.00;99770.16;5117618;28;20347;-84
2021/10/13 06:18:35;;;;;;;14.40;10.40;;;;;;;3.81;100.00;99774.47;5117647;28;20438;-84
2021/10/13 06:21:20;;;;;;;435.38;342.08;;;;;;;3.81;100.00;99774.47;5117472;28;20039;-84
2021/10/13 06:24:05;;;;;;;65.95;52.35;;;;;;;3.86;100.00;99785.69;5117556;28;20055;-84
2021/10/13 06:26:50;;;;;;;28.38;22.98;;;;;;;4.01;100.00;99792.63;5117712;28;20050;-84
2021/10/13 06:29:34;;;;;;;30.67;27.45;;;;;;;3.92;100.00;99796.06;5116650;28;20132;-84
2021/10/13 06:32:18;;;;;;;77.75;64.25;;;;;;;3.94;100.00;99798.66;5117294;28;20035;-83
2021/10/13 06:35:03;;;;;;;193.60;154.40;;;;;;;4.11;100.00;99804.72;5117233;28;20055;-82
2021/10/13 06:37:49;;;;;;;166.55;140.25;;;;;;;4.14;100.00;99802.16;5117308;28;20445;-83
2021/10/13 06:40:33;;;;;;;197.68;77.65;;;;;;;4.11;100.00;99801.28;5116263;28;20036;-82
2021/10/13 06:43:18;;;;;;;75.28;48.20;;;;;;;4.13;100.00;99802.16;5116816;28;20114;-81
2021/10/13 06:46:03;;;;;;;54.90;32.13;;;;;;;4.22;100.00;99804.72;5116439;28;20039;-82
2021/10/13 06:48:47;;;;;;;73.13;33.65;;;;;;;4.18;100.00;99803.88;5116716;28;20039;-82
2021/10/13 06:51:32;;;;;;;43.90;24.98;;;;;;;4.37;100.00;99811.66;5117647;28;20047;-81
2021/10/13 06:54:16;;;;;;;24.67;17.05;;;;;;;4.51;100.00;99816.84;5061800;28;69786;-81
2021/10/13 06:57:01;;;;;;;96.22;40.85;;;;;;;4.51;100.00;99817.69;5032855;28;20057;-81
2021/10/13 06:59:45;;;;;;;44.83;24.30;;;;;;;4.72;100.00;99818.56;5035061;28;20037;-79
2021/10/13 07:02:30;;;;;;;134.25;55.45;;;;;;;4.87;100.00;99826.31;5033697;28;20049;-79
2021/10/13 07:05:14;;;;;;;63.88;29.55;;;;;;;4.75;100.00;99822.03;5034839;28;20042;-81
2021/10/13 07:07:58;;;;;;;46.63;22.85;;;;;;;4.84;100.00;99823.72;5036818;28;20100;-80
2021/10/13 07:10:43;;;;;;;30.50;17.63;;;;;;;4.81;100.00;99823.72;5036493;28;20124;-81
2021/10/13 07:13:28;;;;;;;22.98;15.52;;;;;;;4.73;100.00;99838.47;5036011;28;20367;-80
2021/10/13 07:16:12;;;;;;;37.88;21.75;;;;;;;4.52;100.00;99839.31;5035995;28;20048;-81
2021/10/13 07:18:56;;;;;;;24.00;16.10;;;;;;;4.62;100.00;99839.34;5021745;28;20045;-81
2021/10/13 07:21:41;;;;;;;22.17;14.15;;;;;;;4.69;100.00;99846.25;5036066;28;20050;-81
2021/10/13 07:24:25;;;;;;;22.23;15.25;;;;;;;4.78;100.00;99836.72;5035737;28;20049;-80
2021/10/13 07:27:09;;;;;;;21.75;15.15;;;;;;;4.77;100.00;99850.56;5036444;28;20045;-80
2021/10/13 07:29:59;;;;;;;14.70;11.23;;;;;;;5.01;100.00;99840.16;5035549;28;20053;-81
2021/10/13 07:32:43;;;;;;;17.95;14.95;;;;;;;4.97;99.84;99843.59;5035416;28;20041;-80
2021/10/13 07:35:29;;;;;;;13.77;10.63;;;;;;;5.20;99.55;99850.47;5035521;28;20037;-81
2021/10/13 07:38:16;;;;;;;12.82;9.60;;;;;;;5.14;98.83;99848.78;5036091;28;20052;-82
2021/10/13 07:41:01;;;;;;;14.15;10.07;;;;;;;5.19;98.78;99853.94;5035106;28;20410;-80
2021/10/13 07:43:46;;;;;;;14.25;10.02;;;;;;;5.18;98.65;99854.81;5036414;28;20041;-80
2021/10/13 07:46:30;;;;;;;14.40;10.30;;;;;;;5.22;99.29;99867.78;5035123;28;20045;-80
2021/10/13 07:49:14;;;;;;;12.30;9.18;;;;;;;5.39;99.46;99859.94;5035757;28;20045;-79
2021/10/13 07:51:59;;;;;;;12.45;9.05;;;;;;;5.34;99.20;99857.38;5038564;28;20045;-79
2021/10/13 07:54:43;;;;;;;16.75;10.45;;;;;;;5.32;98.72;99873.81;5039068;28;20172;-80
2021/10/13 07:57:28;;;;;;;14.27;9.75;;;;;;;5.51;98.67;99870.31;5039132;28;20041;-79
2021/10/13 08:00:16;;;;;;;14.13;10.05;;;;;;;5.63;98.80;99870.25;5038852;28;20405;-80
2021/10/13 08:03:00;;;;;;;12.60;9.23;;;;;;;5.56;98.48;99867.69;5039491;28;20041;-80
2021/10/13 08:05:44;;;;;;;12.02;8.45;;;;;;;5.55;98.47;99868.56;5040159;28;20065;-80
2021/10/13 08:08:29;;;;;;;15.05;9.52;;;;;;;5.63;98.37;99872.84;5039835;28;20061;-80
2021/10/13 08:11:13;;;;;;;11.13;8.98;;;;;;;5.76;97.29;99876.28;5040070;28;20069;-81
2021/10/13 08:13:58;;;;;;;11.00;8.57;;;;;;;5.96;97.78;99878.81;5038994;28;20041;-79
2021/10/13 08:16:43;;;;;;;29.85;21.08;;;;;;;6.17;95.84;99885.59;5052777;28;20340;-80
2021/10/13 08:19:27;;;;;;;18.50;14.40;;;;;;;6.32;96.06;99880.31;5039155;28;20049;-80
2021/10/13 08:22:12;;;;;;;17.73;13.40;;;;;;;6.34;94.86;99880.31;5039556;28;20038;-80
2021/10/13 08:24:56;;;;;;;85.10;45.47;;;;;;;6.21;94.82;99886.47;5038566;28;20359;-80
2021/10/13 08:27:40;;;;;;;41.42;24.58;;;;;;;6.15;93.97;99887.38;5039354;28;20054;-80
2021/10/13 08:30:25;;;;;;;18.80;10.50;;;;;;;6.12;93.16;99891.72;5038403;28;20328;-81
2021/10/13 08:33:09;;;;;;;21.98;13.55;;;;;;;6.75;91.37;99887.81;5039207;28;20049;-80
2021/10/13 08:35:54;;;;;;;20.73;13.07;;;;;;;7.16;90.17;99893.53;5039606;28;20332;-79
2021/10/13 08:38:38;;;;;;;22.90;14.32;;;;;;;7.45;88.64;99893.22;5039307;28;20113;-79
2021/10/13 08:41:23;;;;;;;26.33;15.73;;;;;;;7.63;89.35;99895.59;5038412;28;20045;-80
2021/10/13 08:44:11;;;;;;;20.48;12.25;;;;;;;7.05;88.50;99890.16;5052687;28;20042;-81
2021/10/13 08:46:56;;;;;;;17.15;11.50;;;;;;;7.10;89.10;99906.59;5038165;28;20095;-80
2021/10/13 08:49:40;;;;;;;9.90;7.90;;;;;;;7.89;88.04;99895.28;5038118;28;20045;-81
2021/10/13 08:52:29;;;;;;;11.65;7.72;;;;;;;9.07;84.82;99897.94;5038767;28;20042;-79
2021/10/13 08:55:15;;;;;;;7.93;6.80;;;;;;;8.98;82.84;99908.53;5039275;28;20184;-79
2021/10/13 08:58:27;;;;;;;9.25;5.80;;;;;;;8.48;85.92;99912.78;5024033;28;20050;-80
2021/10/13 09:01:13;;;;;;;10.82;7.70;;;;;;;8.15;86.74;99921.03;5038531;28;20042;-80
2021/10/13 09:04:01;;;;;;;43.67;21.20;;;;;;;8.05;86.41;99918.56;5037974;28;20042;-79
2021/10/13 09:06:46;;;;;;;33.55;18.00;;;;;;;7.81;86.79;99922.38;5039068;28;20041;-81
2021/10/13 09:09:31;;;;;;;17.75;13.77;;;;;;;8.91;84.03;99914.75;5038420;28;20053;-80
2021/10/13 09:12:38;;;;;;;8.73;6.72;;;;;;;9.45;78.32;99919.88;5024092;28;20041;-78
2021/10/13 09:15:26;;;;;;;5.90;5.30;;;;;;;9.29;80.25;99919.28;5038832;28;20041;-80
2021/10/13 09:18:10;;;;;;;8.27;6.38;;;;;;;8.95;80.28;99919.88;5038808;28;20041;-79
2021/10/13 09:20:55;;;;;;;8.30;7.43;;;;;;;8.20;82.06;99927.06;5037495;28;20042;-80
2021/10/13 09:23:39;;;;;;;6.93;5.55;;;;;;;8.83;81.42;99934.00;5038355;28;20120;-79
2021/10/13 09:26:25;;;;;;;5.38;4.50;;;;;;;9.12;80.37;99924.81;5038111;28;20041;-80
2021/10/13 09:29:10;;;;;;;5.78;4.53;;;;;;;8.94;82.50;99927.72;5037219;28;20057;-79
2021/10/13 09:32:00;;;;;;;8.85;6.50;;;;;;;8.67;82.89;99929.91;5038562;28;20041;-80
2021/10/13 09:34:50;;;;;;;6.80;6.10;;;;;;;8.86;80.92;99923.50;5038080;28;20046;-80
2021/10/13 09:37:49;;;;;;;13.40;9.57;;;;;;;9.03;79.34;99927.59;5038197;28;20041;-81
2021/10/13 09:40:35;;;;;;;13.23;10.10;;;;;;;9.46;79.94;99932.94;5037371;28;20049;-80
2021/10/13 09:43:37;;;;;;;8.38;6.22;;;;;;;8.94;78.83;99940.78;5038085;28;20060;-80
2021/10/13 09:46:23;;;;;;;9.05;5.38;;;;;;;9.30;76.56;99929.72;5038292;28;20045;-79
2021/10/13 09:49:07;;;;;;;5.00;3.85;;;;;;;9.62;77.01;99924.78;5036970;28;20041;-79
2021/10/13 09:51:51;;;;;;;7.38;6.03;;;;;;;9.54;77.91;99922.31;5022993;28;20042;-80
2021/10/13 09:54:36;;;;;;;7.22;5.18;;;;;;;9.89;76.07;99921.63;5037127;28;20041;-80
2021/10/13 09:57:24;;;;;;;8.60;4.65;;;;;;;9.27;80.19;99942.00;5037915;28;20053;-79
2021/10/13 10:00:23;;;;;;;37.83;22.77;;;;;;;9.73;77.22;99941.16;5037701;28;20042;-79
2021/10/13 10:03:07;;;;;;;12.32;6.70;;;;;;;9.86;77.15;99933.91;5050755;28;20382;-79
2021/10/13 10:05:52;;;;;;;4.85;3.90;;;;;;;9.53;77.46;99944.13;5036861;28;20045;-80
2021/10/13 10:08:51;;;;;;;11.88;7.53;;;;;;;9.60;77.48;99943.13;5037331;28;20042;-79
2021/10/13 10:11:40;;;;;;;6.05;4.25;;;;;;;9.71;77.38;99943.78;5037297;28;20045;-79
2021/10/13 10:14:37;;;;;;;6.80;4.68;;;;;;;9.53;77.56;99944.13;5037028;28;20048;-80
2021/10/13 10:17:39;;;;;;;3.92;3.53;;;;;;;8.95;78.65;99939.94;5036893;28;20057;-80
2021/10/13 10:20:38;;;;;;;10.50;6.43;;;;;;;9.56;78.11;99942.31;5037037;28;20049;-79
2021/10/13 10:23:34;;;;;;;12.35;7.10;;;;;;;10.06;75.60;99945.69;5037288;28;20045;-80
2021/10/13 10:26:25;;;;;;;6.15;4.22;;;;;;;9.66;74.81;99950.88;5036579;28;20041;-78
2021/10/13 10:29:14;;;;;;;5.07;3.55;;;;;;;9.46;75.72;99946.00;5036776;28;20053;-79
2021/10/13 10:31:59;;;;;;;5.05;3.35;;;;;;;9.65;77.49;99945.66;5036218;28;20095;-80
2021/10/13 10:35:05;;;;;;;5.70;3.95;;;;;;;8.96;76.29;99954.69;5036779;28;20042;-79
2021/10/13 10:37:52;;;;;;;4.70;3.53;;;;;;;9.73;77.09;99962.06;5036352;28;20367;-80
2021/10/13 10:40:38;;;;;;;6.97;5.18;;;;;;;10.71;73.59;99954.78;5037214;28;20037;-80
2021/10/13 10:43:25;;;;;;;6.43;4.95;;;;;;;10.46;72.69;99949.22;5036835;28;20034;-80
2021/10/13 10:46:09;;;;;;;5.32;4.60;;;;;;;10.28;73.89;99956.59;5036472;28;20041;-79
2021/10/13 10:48:53;;;;;;;4.55;3.83;;;;;;;9.78;74.42;99958.47;5036421;28;20037;-80
2021/10/13 10:52:01;;;;;;;4.35;3.38;;;;;;;9.38;75.75;99966.19;5036560;28;20067;-80
2021/10/13 10:55:01;;;;;;;4.90;4.05;;;;;;;9.87;74.83;99964.41;5036670;28;20060;-80
2021/10/13 10:57:49;;;;;;;5.05;3.30;;;;;;;10.46;72.74;99964.94;5037005;28;20175;-80
2021/10/13 11:00:36;;;;;;;6.25;3.78;;;;;;;10.10;73.91;99962.19;5036352;28;20343;-80
2021/10/13 11:03:29;;;;;;;11.02;9.02;;;;;;;9.73;75.78;99960.31;5035639;28;20053;-80
2021/10/13 11:06:22;;;;;;;5.97;3.88;;;;;;;9.77;75.77;99966.34;5036416;28;20095;-80
2021/10/13 11:09:12;;;;;;;4.50;3.37;;;;;;;9.94;75.33;99960.78;5036838;28;20478;-80
2021/10/13 11:11:56;;;;;;;6.32;4.20;;;;;;;9.80;74.88;99959.28;5036095;28;20046;-81
2021/10/13 11:14:40;;;;;;;5.47;3.80;;;;;;;10.25;73.69;99966.25;5035965;28;20450;-81
2021/10/13 11:17:25;;;;;;;5.35;3.13;;;;;;;10.60;72.86;99956.81;5036313;28;20459;-79
2021/10/13 11:20:16;;;;;;;13.82;7.78;;;;;;;10.70;70.65;99964.41;5036082;28;20050;-80
2021/10/13 11:23:03;;;;;;;8.60;7.10;;;;;;;10.25;72.17;99958.41;5035885;28;20049;-80
2021/10/13 11:25:53;;;;;;;8.38;6.53;;;;;;;10.87;69.65;99965.78;5032956;28;20048;-79
2021/10/13 11:28:39;;;;;;;7.25;2.75;;;;;;;10.51;70.94;99960.47;5033768;28;20056;-79
2021/10/13 11:31:24;;;;;;;2.28;2.08;;;;;;;10.18;70.57;99955.06;5034027;28;20058;-80
2021/10/13 11:34:09;;;;;;;4.80;2.13;;;;;;;10.45;71.01;99955.38;5033272;28;20045;-80
2021/10/13 11:36:56;;;;;;;2.33;2.13;;;;;;;10.67;69.65;99959.25;5033994;28;20033;-80
2021/10/13 11:39:45;;;;;;;3.97;3.58;;;;;;;10.73;69.62;99964.34;5033873;28;20041;-80
2021/10/13 11:42:31;;;;;;;2.45;2.25;;;;;;;10.68;69.78;99952.22;5034190;28;20053;-80
2021/10/13 11:45:18;;;;;;;4.05;3.22;;;;;;;10.47;71.29;99954.44;5033955;28;20099;-79
2021/10/13 11:48:03;;;;;;;3.60;2.60;;;;;;;10.43;71.61;99962.38;5033109;28;20440;-79
2021/10/13 11:50:48;;;;;;;4.72;3.47;;;;;;;10.24;73.37;99957.53;5034155;28;20112;-79
2021/10/13 11:53:32;;;;;;;6.63;3.63;;;;;;;10.14;71.51;99961.25;5034935;28;20045;-80
2021/10/13 11:56:21;;;;;;;5.60;3.35;;;;;;;9.99;72.68;99948.47;5035587;28;20042;-79
2021/10/13 11:59:12;;;;;;;3.60;2.45;;;;;;;10.31;72.08;99958.31;5034936;28;20042;-80
2021/10/13 12:02:12;;;;;;;4.75;3.10;;;;;;;10.74;70.26;99960.81;5035940;28;20037;-80
2021/10/13 12:05:06;;;;;;;4.60;3.28;;;;;;;10.58;69.85;99959.44;5035727;28;20041;-80
2021/10/13 12:07:51;;;;;;;5.05;3.30;;;;;;;10.91;70.17;99955.16;5034965;28;20111;-80
2021/10/13 12:10:38;;;;;;;4.38;2.85;;;;;;;10.85;68.30;99952.69;5035394;28;20383;-80
2021/10/13 12:13:27;;;;;;;5.13;2.78;;;;;;;10.99;70.12;99953.22;5048946;28;20080;-80
2021/10/13 12:16:18;;;;;;;5.60;2.83;;;;;;;10.98;68.17;99966.34;5035918;28;20041;-79
2021/10/13 12:19:15;;;;;;;4.75;2.58;;;;;;;10.86;68.56;99964.91;5035476;28;20116;-80
2021/10/13 12:22:02;;;;;;;3.25;2.03;;;;;;;11.34;68.17;99961.97;5034851;28;20394;-79
2021/10/13 12:24:46;;;;;;;2.47;1.50;;;;;;;11.21;67.33;99961.44;5034986;28;20038;-79
2021/10/13 12:27:31;;;;;;;2.28;1.42;;;;;;;10.62;69.75;99963.69;5035548;28;20041;-79
2021/10/13 12:30:31;;;;;;;2.20;1.48;;;;;;;10.17;72.12;99960.31;5036060;28;20041;-78
2021/10/13 12:33:16;;;;;;;2.30;2.10;;;;;;;9.92;72.42;99957.34;5034923;28;20049;-79
2021/10/13 12:36:31;;;;;;;3.15;2.47;;;;;;;9.96;71.87;99956.38;5035720;28;20041;-80
2021/10/13 12:39:21;;;;;;;1.92;1.52;;;;;;;9.54;73.66;99964.16;5028483;28;20057;-79
2021/10/13 12:42:13;;;;;;;1.92;1.63;;;;;;;9.56;72.65;99967.63;5039275;28;20427;-77
2021/10/13 12:45:00;;;;;;;2.20;1.48;;;;;;;9.47;73.84;99960.78;5039184;28;20042;-79
2021/10/13 12:47:44;;;;;;;2.30;1.42;;;;;;;9.74;73.33;99964.63;5038907;28;20351;-79
2021/10/13 12:50:29;;;;;;;4.93;2.33;;;;;;;9.59;72.52;99968.44;5038798;28;20045;-79
2021/10/13 12:53:14;;;;;;;7.30;3.55;;;;;;;9.78;72.17;99954.97;5038028;28;20041;-78
2021/10/13 12:55:58;;;;;;;4.68;2.88;;;;;;;9.89;71.95;99955.66;5038715;28;20049;-78
2021/10/13 12:58:47;;;;;;;5.50;3.10;;;;;;;9.92;72.55;99959.97;5023987;28;20387;-79
2021/10/13 13:01:32;;;;;;;3.90;1.50;;;;;;;9.83;70.56;99945.31;5052492;28;20041;-80